Aggieland, Texas
Current Conditions -  °F | °C
As of 5:53 AM on Thursday 23 Oct 2014 (Local Time) from KCLL Reporting Station
Light Rain Light Rain  
Wind Chill: 64°   Ceiling: Unl
Heat Index: 64°   Visibility: 10mi
Dew Point: 56°   Wind: 9mph
Humidity: 75%   Direction: 80°E
Pressure: 30.07"   Gusts: NA
Location:  30.5943°N, 96.3574°W
Report Text: KCLL 231053Z 08008KT 10SM -RA CLR 18/13 A3007 RMK AO2 RAE27B50 SLP178 P0000 T01780133
Loading
Personal Weather Stations






























Interactive Weather Map
Tropical Storm Tracking
New forecast layout! Learn more

10-Day Weather Forecast

Advertisements
Track Severe Weather on mobile